aviador You're here:

KMSS Decoded Metar

MASSENA in NY, USA
Report Time2017-11-19 19:36:00
UTC Time2017-11-19 19:43:27
Flight Rules vfr VFR
Wind260° at 09 Gusting to 17 kt
W.Decomp.*RWY 27: 9.0 kt HW 0.6 kt RCW
RWY 23: 6.5 kt HW 6.3 kt RCW
W.Rank260° ranks 7
Current wind is above 260° avg. (8.8)
Visibility9999 m
Phenomena:N/A
Clouds:Scattered 030 Hf
Overcast 036 Hf
Expected CloudBase > 800 ft AGL from Temp-Dew spread
Ceiling3,600 ft
Temp-1°C (ISA -16)
Dew Point-3°C (86% RH)
AAT-6.6°C
QNH1000 hPa
Density Alt-1,175 ft
Elevation217 ft
Report Wrong Elevation
Raw Report
KMSS 191936Z AUTO 26009G17KT 10SM SCT030 OVC036 M01/M03 A2952 RMK
AO2 T10061033 $=

Extra information for KMSS:More info

Metar Taf Metar & Taf Last 4 Metars F.Rules Stats Wind Profile Meteogram Temp Stats Airport Information Weather charts Add Link Nearby VenuesMetar ALERT Operation Metar Decoded Social comments

AIRNAV info for KMSS